sensor_id;sensor_type;location;lat;lon;timestamp;pressure;altitude;pressure_sealevel;temperature;humidity
36304;BME280;22335;49.800;8.596;2022-11-20T00:03:31;100070.72;;;10.01;56.42
36304;BME280;22335;49.800;8.596;2022-11-20T00:10:16;100053.00;;;9.99;56.40
36304;BME280;22335;49.800;8.596;2022-11-20T00:17:04;100068.22;;;10.05;56.51
36304;BME280;22335;49.800;8.596;2022-11-20T00:23:52;100054.03;;;10.03;56.55
36304;BME280;22335;49.800;8.596;2022-11-20T00:30:39;100065.66;;;10.13;56.58
36304;BME280;22335;49.800;8.596;2022-11-20T00:37:27;100068.09;;;10.15;56.66
36304;BME280;22335;49.800;8.596;2022-11-20T00:44:12;100052.47;;;10.21;56.62
36304;BME280;22335;49.800;8.596;2022-11-20T00:50:58;99976.09;;;9.86;56.37
36304;BME280;22335;49.800;8.596;2022-11-20T00:57:47;100059.47;;;10.32;56.41
36304;BME280;22335;49.800;8.596;2022-11-20T01:04:32;100077.44;;;10.38;56.08
36304;BME280;22335;49.800;8.596;2022-11-20T01:11:20;100062.38;;;10.41;56.39
36304;BME280;22335;49.800;8.596;2022-11-20T01:18:09;100045.81;;;10.32;56.42
36304;BME280;22335;49.800;8.596;2022-11-20T01:24:54;100060.50;;;10.36;56.38
36304;BME280;22335;49.800;8.596;2022-11-20T01:31:41;100056.97;;;10.35;56.38
36304;BME280;22335;49.800;8.596;2022-11-20T01:38:29;100064.34;;;10.35;56.41
36304;BME280;22335;49.800;8.596;2022-11-20T01:52:51;100057.53;;;10.32;56.34
36304;BME280;22335;49.800;8.596;2022-11-20T01:59:45;100054.59;;;10.29;56.30
36304;BME280;22335;49.800;8.596;2022-11-20T02:06:36;100022.41;;;10.21;56.48
36304;BME280;22335;49.800;8.596;2022-11-20T02:13:24;100033.53;;;10.29;56.38
36304;BME280;22335;49.800;8.596;2022-11-20T02:20:25;100052.31;;;10.36;56.35
36304;BME280;22335;49.800;8.596;2022-11-20T02:27:15;100035.53;;;10.19;56.39
36304;BME280;22335;49.800;8.596;2022-11-20T02:34:01;100041.53;;;10.21;56.36
36304;BME280;22335;49.800;8.596;2022-11-20T02:40:46;100044.16;;;10.07;56.45
36304;BME280;22335;49.800;8.596;2022-11-20T02:47:38;100031.72;;;9.96;56.37
36304;BME280;22335;49.800;8.596;2022-11-20T02:54:24;100024.69;;;9.89;56.36
36304;BME280;22335;49.800;8.596;2022-11-20T03:01:10;100022.19;;;9.93;56.46
36304;BME280;22335;49.800;8.596;2022-11-20T03:07:58;100049.16;;;10.00;56.45
36304;BME280;22335;49.800;8.596;2022-11-20T03:14:44;100054.78;;;10.08;56.46
36304;BME280;22335;49.800;8.596;2022-11-20T03:21:34;100054.75;;;10.13;56.31
36304;BME280;22335;49.800;8.596;2022-11-20T03:28:22;100013.19;;;9.92;56.32
36304;BME280;22335;49.800;8.596;2022-11-20T03:35:09;100035.78;;;9.98;56.34
36304;BME280;22335;49.800;8.596;2022-11-20T03:41:54;100043.31;;;10.06;56.21
36304;BME280;22335;49.800;8.596;2022-11-20T04:02:30;100035.53;;;10.19;56.40
36304;BME280;22335;49.800;8.596;2022-11-20T04:09:16;100042.84;;;10.28;56.03
36304;BME280;22335;49.800;8.596;2022-11-20T04:16:02;100040.34;;;10.32;56.19
36304;BME280;22335;49.800;8.596;2022-11-20T04:22:52;100018.16;;;10.33;56.05
36304;BME280;22335;49.800;8.596;2022-11-20T04:29:38;100016.75;;;10.36;56.01
36304;BME280;22335;49.800;8.596;2022-11-20T04:36:25;99992.53;;;10.29;56.03
36304;BME280;22335;49.800;8.596;2022-11-20T04:43:14;100003.41;;;10.34;56.02
36304;BME280;22335;49.800;8.596;2022-11-20T04:50:00;99996.28;;;10.33;56.06
36304;BME280;22335;49.800;8.596;2022-11-20T04:56:47;99989.22;;;10.32;55.93
36304;BME280;22335;49.800;8.596;2022-11-20T05:03:35;100002.72;;;10.43;56.07
36304;BME280;22335;49.800;8.596;2022-11-20T05:10:23;99992.16;;;10.36;55.97
36304;BME280;22335;49.800;8.596;2022-11-20T05:17:10;100010.94;;;10.43;55.91
36304;BME280;22335;49.800;8.596;2022-11-20T05:23:58;99999.63;;;10.68;55.38
36304;BME280;22335;49.800;8.596;2022-11-20T05:30:44;99998.06;;;10.43;55.79
36304;BME280;22335;49.800;8.596;2022-11-20T05:37:30;99990.31;;;10.31;55.72
36304;BME280;22335;49.800;8.596;2022-11-20T05:44:18;99990.22;;;10.36;55.98
36304;BME280;22335;49.800;8.596;2022-11-20T05:51:05;99972.88;;;10.27;55.81
36304;BME280;22335;49.800;8.596;2022-11-20T05:57:53;99981.59;;;10.29;55.88
36304;BME280;22335;49.800;8.596;2022-11-20T06:04:41;99959.72;;;10.29;55.98
36304;BME280;22335;49.800;8.596;2022-11-20T06:11:27;99969.53;;;10.30;55.78
36304;BME280;22335;49.800;8.596;2022-11-20T06:18:12;99974.94;;;10.35;55.95
36304;BME280;22335;49.800;8.596;2022-11-20T06:25:00;99986.16;;;10.34;55.77
36304;BME280;22335;49.800;8.596;2022-11-20T06:31:46;99988.69;;;10.30;55.82
36304;BME280;22335;49.800;8.596;2022-11-20T06:38:32;99974.63;;;10.37;55.84
36304;BME280;22335;49.800;8.596;2022-11-20T06:45:20;99968.47;;;10.31;55.73
36304;BME280;22335;49.800;8.596;2022-11-20T06:52:06;99973.84;;;10.36;55.72
36304;BME280;22335;49.800;8.596;2022-11-20T06:58:51;99987.13;;;10.43;55.81
36304;BME280;22335;49.800;8.596;2022-11-20T07:05:39;99971.69;;;10.33;55.91
36304;BME280;22335;49.800;8.596;2022-11-20T07:12:26;99994.75;;;10.46;55.76
36304;BME280;22335;49.800;8.596;2022-11-20T07:19:12;99999.34;;;10.51;55.76
36304;BME280;22335;49.800;8.596;2022-11-20T07:26:02;99989.22;;;10.32;55.93
36304;BME280;22335;49.800;8.596;2022-11-20T07:32:50;100019.28;;;10.32;55.70
36304;BME280;22335;49.800;8.596;2022-11-20T07:39:36;100011.41;;;10.26;55.68
36304;BME280;22335;49.800;8.596;2022-11-20T07:46:24;99999.72;;;10.20;55.67
36304;BME280;22335;49.800;8.596;2022-11-20T07:53:10;100010.34;;;10.22;55.65
36304;BME280;22335;49.800;8.596;2022-11-20T08:00:03;100038.78;;;10.21;55.79
36304;BME280;22335;49.800;8.596;2022-11-20T08:14:15;100009.81;;;10.01;55.85
36304;BME280;22335;49.800;8.596;2022-11-20T08:21:02;99978.44;;;9.74;55.73
36304;BME280;22335;49.800;8.596;2022-11-20T08:27:48;100052.69;;;10.24;55.60
36304;BME280;22335;49.800;8.596;2022-11-20T08:34:43;100058.50;;;10.18;55.85
36304;BME280;22335;49.800;8.596;2022-11-20T08:41:29;100047.88;;;10.16;55.92
36304;BME280;22335;49.800;8.596;2022-11-20T08:48:15;100047.31;;;10.19;55.98
36304;BME280;22335;49.800;8.596;2022-11-20T08:55:04;99968.13;;;9.66;55.95
36304;BME280;22335;49.800;8.596;2022-11-20T09:01:51;100068.84;;;10.21;56.10
36304;BME280;22335;49.800;8.596;2022-11-20T09:08:37;100039.97;;;10.14;56.28
36304;BME280;22335;49.800;8.596;2022-11-20T09:15:25;100046.47;;;10.19;56.42
36304;BME280;22335;49.800;8.596;2022-11-20T09:22:11;99647.22;;;7.44;56.50
36304;BME280;22335;49.800;8.596;2022-11-20T09:28:56;100040.13;;;10.28;56.33
36304;BME280;22335;49.800;8.596;2022-11-20T09:35:46;100061.69;;;10.49;56.42
36304;BME280;22335;49.800;8.596;2022-11-20T09:42:40;100056.75;;;10.51;56.38
36304;BME280;22335;49.800;8.596;2022-11-20T09:49:37;100060.38;;;10.65;56.25
36304;BME280;22335;49.800;8.596;2022-11-20T09:56:38;100062.47;;;10.73;56.26
36304;BME280;22335;49.800;8.596;2022-11-20T10:03:35;100058.16;;;10.86;56.50
36304;BME280;22335;49.800;8.596;2022-11-20T10:10:31;100050.09;;;10.95;56.19
36304;BME280;22335;49.800;8.596;2022-11-20T10:17:39;100040.34;;;10.89;56.29
36304;BME280;22335;49.800;8.596;2022-11-20T10:24:44;100037.56;;;10.94;56.10
36304;BME280;22335;49.800;8.596;2022-11-20T10:31:37;100052.59;;;11.10;56.10
36304;BME280;22335;49.800;8.596;2022-11-20T10:38:34;100021.25;;;11.02;56.17
36304;BME280;22335;49.800;8.596;2022-11-20T10:45:46;100020.28;;;11.12;56.27
36304;BME280;22335;49.800;8.596;2022-11-20T10:52:42;100013.09;;;11.16;56.03
36304;BME280;22335;49.800;8.596;2022-11-20T10:59:50;100025.59;;;11.22;55.99
36304;BME280;22335;49.800;8.596;2022-11-20T11:06:49;100015.84;;;11.16;55.90
36304;BME280;22335;49.800;8.596;2022-11-20T11:13:34;99988.50;;;10.97;55.94
36304;BME280;22335;49.800;8.596;2022-11-20T11:20:24;100017.25;;;11.14;56.11
36304;BME280;22335;49.800;8.596;2022-11-20T11:27:13;99991.28;;;11.11;56.28
36304;BME280;22335;49.800;8.596;2022-11-20T11:34:07;99974.66;;;11.07;56.26
36304;BME280;22335;49.800;8.596;2022-11-20T11:41:00;99973.84;;;11.07;56.43
36304;BME280;22335;49.800;8.596;2022-11-20T11:47:47;99986.94;;;11.10;56.58
36304;BME280;22335;49.800;8.596;2022-11-20T11:54:37;99985.38;;;11.04;56.82
36304;BME280;22335;49.800;8.596;2022-11-20T12:01:32;99958.78;;;10.91;57.09
36304;BME280;22335;49.800;8.596;2022-11-20T12:08:25;99950.47;;;10.96;57.04
36304;BME280;22335;49.800;8.596;2022-11-20T12:15:26;99956.41;;;11.17;57.31
36304;BME280;22335;49.800;8.596;2022-11-20T12:22:27;99941.72;;;11.26;57.41
36304;BME280;22335;49.800;8.596;2022-11-20T12:29:29;99936.09;;;11.37;57.32
36304;BME280;22335;49.800;8.596;2022-11-20T12:36:28;99932.16;;;11.43;57.41
36304;BME280;22335;49.800;8.596;2022-11-20T12:43:25;99918.94;;;11.45;57.47
36304;BME280;22335;49.800;8.596;2022-11-20T12:50:32;99930.13;;;11.62;57.67
36304;BME280;22335;49.800;8.596;2022-11-20T12:57:50;99932.84;;;11.62;57.85
36304;BME280;22335;49.800;8.596;2022-11-20T13:04:56;99920.16;;;11.66;58.05
36304;BME280;22335;49.800;8.596;2022-11-20T13:11:55;99893.06;;;11.51;58.17
36304;BME280;22335;49.800;8.596;2022-11-20T13:18:46;99894.69;;;11.52;58.44
36304;BME280;22335;49.800;8.596;2022-11-20T13:25:35;99868.13;;;11.39;58.71
36304;BME280;22335;49.800;8.596;2022-11-20T13:32:22;99866.63;;;11.46;58.74
36304;BME280;22335;49.800;8.596;2022-11-20T13:39:08;99861.66;;;11.35;59.19
36304;BME280;22335;49.800;8.596;2022-11-20T13:45:59;99799.50;;;11.07;59.36
36304;BME280;22335;49.800;8.596;2022-11-20T13:52:54;99837.00;;;11.35;59.54
36304;BME280;22335;49.800;8.596;2022-11-20T13:59:52;99833.84;;;11.41;59.55
36304;BME280;22335;49.800;8.596;2022-11-20T14:06:54;99832.03;;;11.50;59.60
36304;BME280;22335;49.800;8.596;2022-11-20T14:13:51;99755.19;;;11.05;59.72
36304;BME280;22335;49.800;8.596;2022-11-20T14:20:39;99834.53;;;11.61;59.50
36304;BME280;22335;49.800;8.596;2022-11-20T14:27:27;99803.59;;;11.60;59.83
36304;BME280;22335;49.800;8.596;2022-11-20T14:34:15;99801.75;;;11.69;59.88
36304;BME280;22335;49.800;8.596;2022-11-20T14:41:08;99797.78;;;11.75;59.78
36304;BME280;22335;49.800;8.596;2022-11-20T14:48:02;99800.22;;;11.91;59.68
36304;BME280;22335;49.800;8.596;2022-11-20T14:54:49;99788.13;;;11.92;59.53
36304;BME280;22335;49.800;8.596;2022-11-20T15:01:35;99769.38;;;11.85;59.63
36304;BME280;22335;49.800;8.596;2022-11-20T15:08:23;99780.09;;;11.82;59.90
36304;BME280;22335;49.800;8.596;2022-11-20T15:15:10;99782.03;;;11.81;59.87
36304;BME280;22335;49.800;8.596;2022-11-20T15:21:57;99781.34;;;11.75;59.98
36304;BME280;22335;49.800;8.596;2022-11-20T15:28:46;99696.41;;;11.17;60.18
36304;BME280;22335;49.800;8.596;2022-11-20T15:35:32;99760.91;;;11.59;60.29
36304;BME280;22335;49.800;8.596;2022-11-20T15:42:18;99752.78;;;11.54;60.50
36304;BME280;22335;49.800;8.596;2022-11-20T15:55:55;99753.06;;;11.66;60.40
36304;BME280;22335;49.800;8.596;2022-11-20T16:02:42;99740.44;;;11.79;60.24
36304;BME280;22335;49.800;8.596;2022-11-20T16:09:30;99744.72;;;11.85;60.27
36304;BME280;22335;49.800;8.596;2022-11-20T16:16:19;99743.78;;;11.90;60.11
36304;BME280;22335;49.800;8.596;2022-11-20T16:23:07;99727.81;;;11.92;59.78
36304;BME280;22335;49.800;8.596;2022-11-20T16:29:55;99714.56;;;11.85;59.96
36304;BME280;22335;49.800;8.596;2022-11-20T16:36:42;99699.28;;;11.70;60.01
36304;BME280;22335;49.800;8.596;2022-11-20T16:43:28;99695.34;;;11.63;60.05
36304;BME280;22335;49.800;8.596;2022-11-20T16:50:16;99691.75;;;11.76;59.57
36304;BME280;22335;49.800;8.596;2022-11-20T16:57:02;99683.44;;;11.67;59.70
36304;BME280;22335;49.800;8.596;2022-11-20T17:03:53;99691.13;;;11.57;60.11
36304;BME280;22335;49.800;8.596;2022-11-20T17:10:42;99686.69;;;11.47;60.36
36304;BME280;22335;49.800;8.596;2022-11-20T17:17:28;99687.56;;;11.34;60.38
36304;BME280;22335;49.800;8.596;2022-11-20T17:24:13;99677.84;;;11.14;60.59
36304;BME280;22335;49.800;8.596;2022-11-20T17:31:03;99675.44;;;11.12;60.78
36304;BME280;22335;49.800;8.596;2022-11-20T17:37:50;99660.88;;;11.03;60.94
36304;BME280;22335;49.800;8.596;2022-11-20T17:44:36;99647.72;;;10.91;60.97
36304;BME280;22335;49.800;8.596;2022-11-20T17:51:26;99633.13;;;10.82;61.05
36304;BME280;22335;49.800;8.596;2022-11-20T17:58:13;99643.97;;;10.87;61.15
36304;BME280;22335;49.800;8.596;2022-11-20T18:04:58;99625.50;;;10.93;61.26
36304;BME280;22335;49.800;8.596;2022-11-20T18:11:46;99613.66;;;10.83;61.46
36304;BME280;22335;49.800;8.596;2022-11-20T18:18:32;99616.41;;;10.83;61.37
36304;BME280;22335;49.800;8.596;2022-11-20T18:25:17;99620.16;;;10.88;61.45
36304;BME280;22335;49.800;8.596;2022-11-20T18:32:05;99598.28;;;10.88;61.80
36304;BME280;22335;49.800;8.596;2022-11-20T18:38:53;99579.59;;;10.90;61.67
36304;BME280;22335;49.800;8.596;2022-11-20T18:45:40;99566.25;;;10.88;61.76
36304;BME280;22335;49.800;8.596;2022-11-20T18:52:30;99568.97;;;10.88;61.95
36304;BME280;22335;49.800;8.596;2022-11-20T18:59:18;99563.19;;;10.90;62.02
36304;BME280;22335;49.800;8.596;2022-11-20T19:06:04;99566.75;;;10.90;62.10
36304;BME280;22335;49.800;8.596;2022-11-20T19:12:53;99556.00;;;10.94;62.12
36304;BME280;22335;49.800;8.596;2022-11-20T19:19:39;99558.66;;;11.07;61.97
36304;BME280;22335;49.800;8.596;2022-11-20T19:26:25;99558.13;;;11.19;61.86
36304;BME280;22335;49.800;8.596;2022-11-20T19:33:14;99551.09;;;11.27;61.90
36304;BME280;22335;49.800;8.596;2022-11-20T19:39:59;99553.25;;;11.39;61.74
36304;BME280;22335;49.800;8.596;2022-11-20T19:46:47;99560.66;;;11.61;61.58
36304;BME280;22335;49.800;8.596;2022-11-20T19:53:36;99539.81;;;11.51;61.55
36304;BME280;22335;49.800;8.596;2022-11-20T20:00:21;99536.94;;;11.56;61.38
36304;BME280;22335;49.800;8.596;2022-11-20T20:07:13;99527.31;;;11.59;61.29
36304;BME280;22335;49.800;8.596;2022-11-20T20:14:02;99513.81;;;11.40;61.47
36304;BME280;22335;49.800;8.596;2022-11-20T20:20:49;99522.22;;;11.43;61.40
36304;BME280;22335;49.800;8.596;2022-11-20T20:27:34;99531.28;;;11.52;61.30
36304;BME280;22335;49.800;8.596;2022-11-20T20:34:22;99518.19;;;11.41;61.25
36304;BME280;22335;49.800;8.596;2022-11-20T20:41:10;99485.75;;;11.03;61.31
36304;BME280;22335;49.800;8.596;2022-11-20T20:47:56;99505.88;;;10.84;61.53
36304;BME280;22335;49.800;8.596;2022-11-20T20:54:45;99534.56;;;10.73;61.96
36304;BME280;22335;49.800;8.596;2022-11-20T21:01:30;99515.59;;;10.54;62.21
36304;BME280;22335;49.800;8.596;2022-11-20T21:08:16;99532.59;;;10.51;62.42
36304;BME280;22335;49.800;8.596;2022-11-20T21:15:11;99519.03;;;10.46;62.58
36304;BME280;22335;49.800;8.596;2022-11-20T21:21:57;99504.59;;;10.32;62.73
36304;BME280;22335;49.800;8.596;2022-11-20T21:28:43;99515.53;;;10.32;62.61
36304;BME280;22335;49.800;8.596;2022-11-20T21:35:35;99500.53;;;10.15;62.98
36304;BME280;22335;49.800;8.596;2022-11-20T21:42:21;99502.25;;;10.11;62.97
36304;BME280;22335;49.800;8.596;2022-11-20T21:49:08;99526.22;;;10.14;63.35
36304;BME280;22335;49.800;8.596;2022-11-20T21:55:58;99546.78;;;10.12;63.59
36304;BME280;22335;49.800;8.596;2022-11-20T22:02:44;99537.97;;;10.15;63.41
36304;BME280;22335;49.800;8.596;2022-11-20T22:09:30;99530.56;;;10.15;63.62
36304;BME280;22335;49.800;8.596;2022-11-20T22:16:19;99531.91;;;10.18;63.76
36304;BME280;22335;49.800;8.596;2022-11-20T22:23:04;99529.88;;;10.24;63.84
36304;BME280;22335;49.800;8.596;2022-11-20T22:29:50;99512.91;;;10.13;63.86
36304;BME280;22335;49.800;8.596;2022-11-20T22:36:39;99507.72;;;10.11;64.10
36304;BME280;22335;49.800;8.596;2022-11-20T22:43:25;99540.94;;;10.32;63.98
36304;BME280;22335;49.800;8.596;2022-11-20T22:50:11;99532.22;;;10.30;63.93
36304;BME280;22335;49.800;8.596;2022-11-20T22:56:59;99528.16;;;10.28;63.98
36304;BME280;22335;49.800;8.596;2022-11-20T23:03:45;99527.28;;;10.32;63.98
36304;BME280;22335;49.800;8.596;2022-11-20T23:10:32;99514.91;;;10.35;64.12
36304;BME280;22335;49.800;8.596;2022-11-20T23:17:20;99528.69;;;10.44;64.21
36304;BME280;22335;49.800;8.596;2022-11-20T23:24:07;99521.69;;;10.37;64.12
36304;BME280;22335;49.800;8.596;2022-11-20T23:30:54;99538.59;;;10.39;64.26
36304;BME280;22335;49.800;8.596;2022-11-20T23:37:42;99537.88;;;10.48;64.36
36304;BME280;22335;49.800;8.596;2022-11-20T23:44:28;99544.47;;;10.47;63.89
36304;BME280;22335;49.800;8.596;2022-11-20T23:51:13;99541.41;;;10.48;64.34
36304;BME280;22335;49.800;8.596;2022-11-20T23:58:02;99546.78;;;10.53;64.65
